createdAt,value
2023-05-03T00:00:39.185Z,0.00
2023-05-03T00:01:39.298Z,0.00
2023-05-03T00:02:39.485Z,0.00
2023-05-03T00:03:39.145Z,0.00
2023-05-03T00:04:39.151Z,0.00
2023-05-03T00:05:39.332Z,0.00
2023-05-03T00:06:39.278Z,0.00
2023-05-03T00:07:39.101Z,0.00
2023-05-03T00:08:39.109Z,0.00
2023-05-03T00:09:39.083Z,0.00
2023-05-03T00:10:39.092Z,0.00
2023-05-03T00:11:39.079Z,0.00
2023-05-03T00:12:39.059Z,0.00
2023-05-03T00:13:39.069Z,0.00
2023-05-03T00:14:39.031Z,0.00
2023-05-03T00:15:39.011Z,0.00
2023-05-03T00:16:39.034Z,0.00
2023-05-03T00:17:39.049Z,0.00
2023-05-03T00:18:38.984Z,0.00
2023-05-03T00:19:38.978Z,0.00
2023-05-03T00:20:38.964Z,0.00
2023-05-03T00:21:38.950Z,0.00
2023-05-03T00:22:38.932Z,0.00
2023-05-03T00:23:38.918Z,0.00
2023-05-03T00:24:38.911Z,0.00
2023-05-03T00:25:38.921Z,0.00
2023-05-03T00:26:38.897Z,0.00
2023-05-03T00:27:38.902Z,0.00
2023-05-03T00:28:38.883Z,0.00
2023-05-03T00:29:38.873Z,0.00
2023-05-03T00:30:38.857Z,0.00
2023-05-03T00:31:38.969Z,0.00
2023-05-03T00:32:38.887Z,0.00
2023-05-03T00:33:38.866Z,0.00
2023-05-03T00:34:38.818Z,0.00
2023-05-03T00:35:38.807Z,0.00
2023-05-03T00:36:38.779Z,0.00
2023-05-03T00:37:38.776Z,0.00
2023-05-03T00:38:38.817Z,0.00
2023-05-03T00:39:38.783Z,0.00
2023-05-03T00:40:38.745Z,0.00
2023-05-03T00:41:38.724Z,0.00
2023-05-03T00:42:38.725Z,0.00
2023-05-03T00:43:38.769Z,0.00
2023-05-03T00:44:38.702Z,0.00
2023-05-03T00:45:38.700Z,0.00
2023-05-03T00:46:38.724Z,0.00
2023-05-03T00:47:38.684Z,0.00
2023-05-03T00:48:38.648Z,0.00
2023-05-03T00:49:38.642Z,0.00
2023-05-03T00:50:38.620Z,0.00
2023-05-03T00:51:38.624Z,0.00
2023-05-03T00:52:38.613Z,0.00
2023-05-03T00:53:38.585Z,0.00
2023-05-03T00:54:38.616Z,0.00
2023-05-03T00:55:38.586Z,0.00
2023-05-03T00:56:50.476Z,0.00
2023-05-03T00:57:39.567Z,0.00
2023-05-03T00:58:38.583Z,0.00
2023-05-03T00:59:38.559Z,0.00
2023-05-03T01:00:38.544Z,0.00
2023-05-03T01:01:38.544Z,0.00
2023-05-03T01:02:38.562Z,0.00
2023-05-03T01:03:38.518Z,0.00
2023-05-03T01:04:38.849Z,0.00
2023-05-03T01:05:38.454Z,0.00
2023-05-03T01:06:38.501Z,0.00
2023-05-03T01:07:38.436Z,0.00
2023-05-03T01:08:38.429Z,0.00
2023-05-03T01:09:38.422Z,0.00
2023-05-03T01:10:38.406Z,0.00
2023-05-03T01:11:38.412Z,0.00
2023-05-03T01:12:38.383Z,0.00
2023-05-03T01:13:38.377Z,0.00
2023-05-03T01:14:38.360Z,0.00
2023-05-03T01:15:38.380Z,0.00
2023-05-03T01:16:38.391Z,0.00
2023-05-03T01:17:38.353Z,0.00
2023-05-03T01:18:38.323Z,0.00
2023-05-03T01:19:38.304Z,0.00
2023-05-03T01:20:38.290Z,0.00
2023-05-03T01:21:38.285Z,0.00
2023-05-03T01:22:38.295Z,0.00
2023-05-03T01:23:38.257Z,0.00
2023-05-03T01:24:38.237Z,0.00
2023-05-03T01:25:38.241Z,0.00
2023-05-03T01:26:38.213Z,0.00
2023-05-03T01:27:38.210Z,0.00
2023-05-03T01:28:38.212Z,0.00
2023-05-03T01:29:38.192Z,0.00
2023-05-03T01:30:38.185Z,0.00
2023-05-03T01:31:38.230Z,0.00
2023-05-03T01:32:38.161Z,0.00
2023-05-03T01:33:38.153Z,0.00
2023-05-03T01:34:38.147Z,0.00
2023-05-03T01:35:38.123Z,0.00
2023-05-03T01:36:38.118Z,0.00
2023-05-03T01:37:38.103Z,0.00
2023-05-03T01:38:38.092Z,0.00
2023-05-03T01:39:38.069Z,0.00
2023-05-03T01:40:38.079Z,0.00
2023-05-03T01:41:38.045Z,0.00
2023-05-03T01:42:38.043Z,0.00
2023-05-03T01:43:38.055Z,0.00
2023-05-03T01:44:38.025Z,0.00
2023-05-03T01:45:38.066Z,0.00
2023-05-03T01:46:38.008Z,0.00
2023-05-03T01:47:38.023Z,0.00
2023-05-03T01:48:37.971Z,0.00
2023-05-03T01:49:37.966Z,0.00
2023-05-03T01:50:37.960Z,0.00
2023-05-03T01:51:37.979Z,0.00
2023-05-03T01:52:37.947Z,0.00
2023-05-03T01:53:37.915Z,0.00
2023-05-03T01:54:37.910Z,0.00
2023-05-03T01:55:37.910Z,0.00
2023-05-03T01:56:37.897Z,0.00
2023-05-03T01:57:37.889Z,0.00
2023-05-03T01:58:37.868Z,0.00
2023-05-03T01:59:37.862Z,0.00
2023-05-03T02:00:37.862Z,0.00
2023-05-03T02:01:37.972Z,0.00
2023-05-03T02:02:37.860Z,0.00
2023-05-03T02:03:37.848Z,0.00
2023-05-03T02:04:37.896Z,0.00
2023-05-03T02:05:37.792Z,0.00
2023-05-03T02:06:37.811Z,0.00
2023-05-03T02:07:37.781Z,0.00
2023-05-03T02:08:37.767Z,0.00
2023-05-03T02:09:37.760Z,0.00
2023-05-03T02:10:37.725Z,0.00
2023-05-03T02:11:37.714Z,0.00
2023-05-03T02:12:37.715Z,0.00
2023-05-03T02:13:37.723Z,0.00
2023-05-03T02:14:37.692Z,0.00
2023-05-03T02:15:37.663Z,0.00
2023-05-03T02:16:37.705Z,0.00
2023-05-03T02:17:37.701Z,0.00
2023-05-03T02:18:37.643Z,0.00
2023-05-03T02:19:37.660Z,0.00
2023-05-03T02:20:37.635Z,0.00
2023-05-03T02:21:37.596Z,0.00
2023-05-03T02:22:37.600Z,0.00
2023-05-03T02:23:37.618Z,0.00
2023-05-03T02:24:37.568Z,0.00
2023-05-03T02:25:37.557Z,0.00
2023-05-03T02:26:37.540Z,0.00
2023-05-03T02:27:37.533Z,0.00
2023-05-03T02:28:37.538Z,0.00
2023-05-03T02:29:37.520Z,0.00
2023-05-03T02:30:37.599Z,0.00
2023-05-03T02:31:37.497Z,0.00
2023-05-03T02:32:37.547Z,0.00
2023-05-03T02:33:37.480Z,0.00
2023-05-03T02:34:37.466Z,0.00
2023-05-03T02:35:37.477Z,0.00
2023-05-03T02:36:37.464Z,0.00
2023-05-03T02:37:37.446Z,0.00
2023-05-03T02:38:37.404Z,0.00
2023-05-03T02:39:37.407Z,0.00
2023-05-03T02:40:37.382Z,0.00
2023-05-03T02:41:37.393Z,0.00
2023-05-03T02:42:37.393Z,0.00
2023-05-03T02:43:37.351Z,0.00
2023-05-03T02:44:37.364Z,0.00
2023-05-03T02:45:37.332Z,0.00
2023-05-03T02:46:37.396Z,0.00
2023-05-03T02:47:37.334Z,0.00
2023-05-03T02:48:37.328Z,0.00
2023-05-03T02:49:37.286Z,0.00
2023-05-03T02:50:37.297Z,0.00
2023-05-03T02:51:37.298Z,0.00
2023-05-03T02:52:37.249Z,0.00
2023-05-03T02:53:37.253Z,0.00
2023-05-03T02:54:37.245Z,0.00
2023-05-03T02:55:37.223Z,0.00
2023-05-03T02:56:37.205Z,0.00
2023-05-03T02:57:37.205Z,0.00
2023-05-03T02:58:37.181Z,0.00
2023-05-03T02:59:37.187Z,0.00
2023-05-03T03:00:37.173Z,0.00
2023-05-03T03:01:37.188Z,0.00
2023-05-03T03:02:37.207Z,0.00
2023-05-03T03:03:37.249Z,0.00
2023-05-03T03:04:37.137Z,0.00
2023-05-03T03:05:37.110Z,0.00
2023-05-03T03:06:37.108Z,0.00
2023-05-03T03:07:37.123Z,0.00
2023-05-03T03:08:37.077Z,0.00
2023-05-03T03:09:37.072Z,0.00
2023-05-03T03:10:37.065Z,0.00
2023-05-03T03:11:37.050Z,0.00
2023-05-03T03:12:37.038Z,0.00
2023-05-03T03:13:37.022Z,0.00
2023-05-03T03:14:37.001Z,0.00
2023-05-03T03:15:36.990Z,0.00
2023-05-03T03:16:37.190Z,0.00
2023-05-03T03:17:37.006Z,0.00
2023-05-03T03:18:37.000Z,0.00
2023-05-03T03:19:36.947Z,0.00
2023-05-03T03:20:36.943Z,0.00
2023-05-03T03:21:36.935Z,0.00
2023-05-03T03:22:36.935Z,0.00
2023-05-03T03:23:36.934Z,0.00
2023-05-03T03:24:36.925Z,0.00
2023-05-03T03:25:36.877Z,0.00
2023-05-03T03:26:36.886Z,4.00
2023-05-03T03:27:39.172Z,4.00
2023-05-03T03:28:36.846Z,0.00
2023-05-03T03:29:36.827Z,0.00
2023-05-03T03:30:36.840Z,4.00
2023-05-03T03:31:36.886Z,4.00
2023-05-03T03:32:36.822Z,4.00
2023-05-03T03:33:36.794Z,4.00
2023-05-03T03:34:36.793Z,4.00
2023-05-03T03:35:36.778Z,8.00
2023-05-03T03:36:36.764Z,8.00
2023-05-03T03:37:36.768Z,8.00
2023-05-03T03:38:36.753Z,8.00
2023-05-03T03:39:36.749Z,12.00
2023-05-03T03:40:36.724Z,12.00
2023-05-03T03:41:36.721Z,16.00
2023-05-03T03:42:36.717Z,20.00
2023-05-03T03:43:36.675Z,20.00
2023-05-03T03:44:36.673Z,24.00
2023-05-03T03:45:36.674Z,28.00
2023-05-03T03:46:36.682Z,32.00
2023-05-03T03:47:36.676Z,40.00
2023-05-03T03:48:36.654Z,40.00
2023-05-03T03:49:36.613Z,52.00
2023-05-03T03:50:36.612Z,56.00
2023-05-03T03:51:36.592Z,68.00
2023-05-03T03:52:36.588Z,80.00
2023-05-03T03:53:36.569Z,88.00
2023-05-03T03:54:36.583Z,100.00
2023-05-03T03:55:36.581Z,112.00
2023-05-03T03:56:36.548Z,124.00
2023-05-03T03:57:36.530Z,140.00
2023-05-03T03:58:36.515Z,156.00
2023-05-03T03:59:36.516Z,176.00
2023-05-03T04:00:36.523Z,192.00
2023-05-03T04:01:36.483Z,216.00
2023-05-03T04:02:36.522Z,236.00
2023-05-03T04:03:36.583Z,264.00
2023-05-03T04:04:36.502Z,288.00
2023-05-03T04:05:36.433Z,312.00
2023-05-03T04:06:36.489Z,340.00
2023-05-03T04:07:36.407Z,368.00
2023-05-03T04:08:36.408Z,396.00
2023-05-03T04:09:36.397Z,432.00
2023-05-03T04:10:36.386Z,460.00
2023-05-03T04:11:36.388Z,496.00
2023-05-03T04:12:36.374Z,532.00
2023-05-03T04:13:36.345Z,572.00
2023-05-03T04:14:36.369Z,608.00
2023-05-03T04:15:36.368Z,648.00
2023-05-03T04:16:36.335Z,684.00
2023-05-03T04:17:36.322Z,728.00
2023-05-03T04:18:36.320Z,768.00
2023-05-03T04:19:36.288Z,808.00
2023-05-03T04:20:36.289Z,852.00
2023-05-03T04:21:36.268Z,892.00
2023-05-03T04:22:36.252Z,932.00
2023-05-03T04:23:36.249Z,968.00
2023-05-03T04:24:36.235Z,1012.00
2023-05-03T04:25:36.227Z,1052.00
2023-05-03T04:26:36.219Z,1092.00
2023-05-03T04:27:36.211Z,1132.00
2023-05-03T04:28:36.178Z,1172.00
2023-05-03T04:29:36.167Z,1208.00
2023-05-03T04:30:36.177Z,1248.00
2023-05-03T04:31:36.172Z,1288.00
2023-05-03T04:32:36.226Z,1324.00
2023-05-03T04:33:36.133Z,1368.00
2023-05-03T04:34:36.102Z,1404.00
2023-05-03T04:35:36.121Z,1436.00
2023-05-03T04:36:36.084Z,1468.00
2023-05-03T04:37:36.095Z,1504.00
2023-05-03T04:38:36.086Z,1536.00
2023-05-03T04:39:36.074Z,1572.00
2023-05-03T04:40:36.044Z,1608.00
2023-05-03T04:41:36.030Z,1644.00
2023-05-03T04:42:36.037Z,1684.00
2023-05-03T04:43:36.054Z,1732.00
2023-05-03T04:44:35.998Z,1776.00
2023-05-03T04:45:36.009Z,1828.00
2023-05-03T04:46:35.999Z,1876.00
2023-05-03T04:47:36.034Z,1920.00
2023-05-03T04:48:35.950Z,1960.00
2023-05-03T04:49:36.043Z,2008.00
2023-05-03T04:50:35.929Z,2060.00
2023-05-03T04:51:35.928Z,2100.00
2023-05-03T04:52:35.904Z,2144.00
2023-05-03T04:53:35.924Z,2200.00
2023-05-03T04:54:35.894Z,2252.00
2023-05-03T04:55:35.913Z,2304.00
2023-05-03T04:56:35.861Z,2344.00
2023-05-03T04:57:35.853Z,2392.00
2023-05-03T04:58:35.854Z,2424.00
2023-05-03T04:59:35.992Z,2460.00
2023-05-03T05:00:35.828Z,2496.00
2023-05-03T05:01:35.874Z,2536.00
2023-05-03T05:02:35.936Z,2572.00
2023-05-03T05:03:35.922Z,2616.00
2023-05-03T05:04:35.772Z,2652.00
2023-05-03T05:05:35.767Z,2700.00
2023-05-03T05:06:35.852Z,2740.00
2023-05-03T05:07:35.759Z,2792.00
2023-05-03T05:08:35.832Z,2848.00
2023-05-03T05:09:35.721Z,2900.00
2023-05-03T05:10:35.760Z,2972.00
2023-05-03T05:11:35.724Z,3012.00
2023-05-03T05:12:35.697Z,3056.00
2023-05-03T05:13:35.869Z,3108.00
2023-05-03T05:14:35.728Z,3140.00
2023-05-03T05:15:35.674Z,3184.00
2023-05-03T05:16:35.754Z,3228.00
2023-05-03T05:17:35.961Z,3276.00
2023-05-03T05:18:35.691Z,3308.00
2023-05-03T05:19:44.900Z,3340.00
2023-05-03T05:20:35.593Z,3372.00
2023-05-03T05:21:35.622Z,3404.00
2023-05-03T05:22:35.590Z,3428.00
2023-05-03T05:23:35.552Z,3460.00
2023-05-03T05:24:35.544Z,3484.00
2023-05-03T05:25:35.575Z,3512.00
2023-05-03T05:26:35.549Z,3544.00
2023-05-03T05:27:35.553Z,3564.00
2023-05-03T05:28:35.534Z,3588.00
2023-05-03T05:29:35.480Z,3612.00
2023-05-03T05:30:35.525Z,3636.00
2023-05-03T05:31:35.624Z,3660.00
2023-05-03T05:32:35.512Z,3688.00
2023-05-03T05:33:35.457Z,3712.00
2023-05-03T05:34:43.674Z,3724.00
2023-05-03T05:35:36.424Z,3752.00
2023-05-03T05:36:35.429Z,3768.00
2023-05-03T05:37:35.416Z,3792.00
2023-05-03T05:38:35.402Z,3812.00
2023-05-03T05:39:35.419Z,3832.00
2023-05-03T05:40:35.417Z,3852.00
2023-05-03T05:41:35.381Z,3880.00
2023-05-03T05:42:35.374Z,3892.00
2023-05-03T05:43:35.345Z,3916.00
2023-05-03T05:44:35.319Z,3932.00
2023-05-03T05:45:35.346Z,3952.00
2023-05-03T05:46:35.370Z,3972.00
2023-05-03T05:47:35.412Z,3992.00
2023-05-03T05:48:35.293Z,4008.00
2023-05-03T05:49:35.261Z,4028.00
2023-05-03T05:50:35.312Z,4044.00
2023-05-03T05:51:35.265Z,4060.00
2023-05-03T05:52:35.246Z,4076.00
2023-05-03T05:53:35.248Z,4096.00
2023-05-03T05:54:35.255Z,4116.00
2023-05-03T05:55:35.235Z,4136.00
2023-05-03T05:56:35.198Z,4152.00
2023-05-03T05:57:35.214Z,4164.00
2023-05-03T05:58:35.177Z,4176.00
2023-05-03T05:59:35.199Z,4196.00
2023-05-03T06:00:35.200Z,4216.00
2023-05-03T06:01:35.168Z,4236.00
2023-05-03T06:02:35.337Z,4256.00
2023-05-03T06:03:35.141Z,4276.00
2023-05-03T06:04:35.142Z,4288.00
2023-05-03T06:05:35.144Z,4304.00
2023-05-03T06:06:35.215Z,4316.00
2023-05-03T06:07:35.092Z,4328.00
2023-05-03T06:08:35.058Z,4340.00
2023-05-03T06:09:35.061Z,4356.00
2023-05-03T06:10:35.059Z,4372.00
2023-05-03T06:11:35.041Z,4384.00
2023-05-03T06:12:35.015Z,4396.00
2023-05-03T06:13:35.008Z,4404.00
2023-05-03T06:14:35.025Z,4412.00
2023-05-03T06:15:34.996Z,4432.00
2023-05-03T06:16:34.993Z,4440.00
2023-05-03T06:17:35.035Z,4448.00
2023-05-03T06:18:34.989Z,4460.00
2023-05-03T06:19:35.084Z,4472.00
2023-05-03T06:20:34.971Z,4484.00
2023-05-03T06:21:34.934Z,4500.00
2023-05-03T06:22:34.966Z,4516.00
2023-05-03T06:23:34.882Z,4528.00
2023-05-03T06:24:34.913Z,4548.00
2023-05-03T06:25:34.909Z,4564.00
2023-05-03T06:26:34.852Z,4576.00
2023-05-03T06:27:34.859Z,4584.00
2023-05-03T06:28:34.929Z,4596.00
2023-05-03T06:29:34.849Z,4612.00
2023-05-03T06:30:35.362Z,4620.00
2023-05-03T06:31:34.912Z,4628.00
2023-05-03T06:32:34.874Z,4632.00
2023-05-03T06:33:34.809Z,4644.00
2023-05-03T06:34:34.776Z,4648.00
2023-05-03T06:35:34.793Z,4656.00
2023-05-03T06:36:34.754Z,4664.00
2023-05-03T06:37:34.728Z,4664.00
2023-05-03T06:38:34.766Z,4668.00
2023-05-03T06:39:34.723Z,4672.00
2023-05-03T06:40:36.024Z,4680.00
2023-05-03T06:41:34.683Z,4684.00
2023-05-03T06:42:34.731Z,4692.00
2023-05-03T06:43:34.694Z,4696.00
2023-05-03T06:44:34.758Z,4700.00
2023-05-03T06:45:34.660Z,4700.00
2023-05-03T06:46:34.770Z,4724.00
2023-05-03T06:47:34.683Z,4752.00
2023-05-03T06:48:34.663Z,4772.00
2023-05-03T06:49:34.648Z,4780.00
2023-05-03T06:50:34.593Z,4796.00
2023-05-03T06:51:34.752Z,4804.00
2023-05-03T06:52:34.625Z,4808.00
2023-05-03T06:53:34.571Z,4824.00
2023-05-03T06:54:34.555Z,4836.00
2023-05-03T06:55:34.553Z,4852.00
2023-05-03T06:56:34.531Z,4864.00
2023-05-03T06:57:34.544Z,4884.00
2023-05-03T06:58:34.653Z,4888.00
2023-05-03T06:59:34.477Z,4920.00
2023-05-03T07:00:34.474Z,4944.00
2023-05-03T07:01:34.556Z,4968.00
2023-05-03T07:02:34.587Z,4984.00
2023-05-03T07:03:34.563Z,4996.00
2023-05-03T07:04:34.455Z,5000.00
2023-05-03T07:05:34.468Z,5008.00
2023-05-03T07:06:44.216Z,5020.00
2023-05-03T07:07:35.587Z,5032.00
2023-05-03T07:08:34.426Z,5056.00
2023-05-03T07:09:42.748Z,5064.00
2023-05-03T07:10:35.354Z,5064.00
2023-05-03T07:11:34.382Z,5080.00
2023-05-03T07:12:35.380Z,5088.00
2023-05-03T07:13:34.388Z,5088.00
2023-05-03T07:14:34.336Z,5084.00
2023-05-03T07:15:34.299Z,5092.00
2023-05-03T07:16:34.394Z,5096.00
2023-05-03T07:17:34.374Z,5088.00
2023-05-03T07:18:34.369Z,5072.00
2023-05-03T07:19:34.372Z,5080.00
2023-05-03T07:20:34.260Z,5076.00
2023-05-03T07:21:34.288Z,5064.00
2023-05-03T07:22:34.250Z,5044.00
2023-05-03T07:23:34.268Z,5032.00
2023-05-03T07:24:34.283Z,5008.00
2023-05-03T07:25:34.222Z,4984.00
2023-05-03T07:26:34.205Z,4964.00
2023-05-03T07:27:34.190Z,4932.00
2023-05-03T07:28:34.180Z,4928.00
2023-05-03T07:29:34.139Z,4908.00
2023-05-03T07:30:34.175Z,4880.00
2023-05-03T07:31:34.158Z,4856.00
2023-05-03T07:32:34.194Z,4840.00
2023-05-03T07:33:34.333Z,4832.00
2023-05-03T07:34:34.159Z,4872.00
2023-05-03T07:35:34.117Z,4892.00
2023-05-03T07:36:34.108Z,4916.00
2023-05-03T07:37:34.209Z,4948.00
2023-05-03T07:38:34.056Z,4968.00
2023-05-03T07:39:34.200Z,4976.00
2023-05-03T07:40:34.060Z,4980.00
2023-05-03T07:41:34.040Z,4988.00
2023-05-03T07:42:34.015Z,4992.00
2023-05-03T07:43:34.009Z,5000.00
2023-05-03T07:44:34.020Z,5012.00
2023-05-03T07:45:34.076Z,5008.00
2023-05-03T07:46:34.095Z,4980.00
2023-05-03T07:47:33.961Z,5020.00
2023-05-03T07:48:33.952Z,5048.00
2023-05-03T07:49:33.998Z,5060.00
2023-05-03T07:50:33.948Z,5072.00
2023-05-03T07:51:34.153Z,5092.00
2023-05-03T07:52:33.896Z,5112.00
2023-05-03T07:53:33.874Z,5136.00
2023-05-03T07:54:33.912Z,5168.00
2023-05-03T07:55:33.891Z,5196.00
2023-05-03T07:56:33.898Z,5220.00
2023-05-03T07:57:33.949Z,5228.00
2023-05-03T07:58:39.867Z,5212.00
2023-05-03T07:59:34.802Z,5160.00
2023-05-03T08:00:33.926Z,5120.00
2023-05-03T08:01:33.877Z,4996.00
2023-05-03T08:02:33.921Z,4960.00
2023-05-03T08:03:33.943Z,4932.00
2023-05-03T08:04:33.930Z,4956.00
2023-05-03T08:05:33.809Z,4976.00
2023-05-03T08:06:33.768Z,4952.00
2023-05-03T08:07:33.738Z,4992.00
2023-05-03T08:08:33.877Z,5036.00
2023-05-03T08:09:33.717Z,5064.00
2023-05-03T08:10:33.725Z,5072.00
2023-05-03T08:11:33.725Z,5084.00
2023-05-03T08:12:33.745Z,5088.00
2023-05-03T08:13:33.693Z,5100.00
2023-05-03T08:14:33.682Z,5112.00
2023-05-03T08:15:33.664Z,5124.00
2023-05-03T08:16:33.620Z,5128.00
2023-05-03T08:17:33.641Z,5120.00
2023-05-03T08:18:33.632Z,5108.00
2023-05-03T08:19:33.651Z,5116.00
2023-05-03T08:20:33.594Z,5132.00
2023-05-03T08:21:33.768Z,5180.00
2023-05-03T08:22:33.721Z,5176.00
2023-05-03T08:23:33.807Z,5208.00
2023-05-03T08:24:33.540Z,5208.00
2023-05-03T08:25:33.533Z,5212.00
2023-05-03T08:26:33.617Z,5216.00
2023-05-03T08:27:33.537Z,5216.00
2023-05-03T08:28:33.532Z,5208.00
2023-05-03T08:29:33.508Z,5208.00
2023-05-03T08:30:33.488Z,5208.00
2023-05-03T08:31:33.599Z,5196.00
2023-05-03T08:32:33.533Z,5204.00
2023-05-03T08:33:33.466Z,5200.00
2023-05-03T08:34:33.443Z,5172.00
2023-05-03T08:35:33.429Z,5176.00
2023-05-03T08:36:33.486Z,5200.00
2023-05-03T08:37:33.428Z,5208.00
2023-05-03T08:38:33.452Z,5212.00
2023-05-03T08:39:33.376Z,5216.00
2023-05-03T08:40:33.379Z,5216.00
2023-05-03T08:41:34.370Z,5204.00
2023-05-03T08:42:34.344Z,5188.00
2023-05-03T08:43:36.021Z,5208.00
2023-05-03T08:44:33.340Z,5236.00
2023-05-03T08:45:33.308Z,5256.00
2023-05-03T08:46:33.352Z,5272.00
2023-05-03T08:47:33.361Z,5296.00
2023-05-03T08:48:33.316Z,5316.00
2023-05-03T08:49:33.358Z,5332.00
2023-05-03T08:50:33.248Z,5348.00
2023-05-03T08:51:33.243Z,5348.00
2023-05-03T08:52:33.851Z,5336.00
2023-05-03T08:53:33.227Z,5288.00
2023-05-03T08:54:33.267Z,5356.00
2023-05-03T08:55:33.192Z,5416.00
2023-05-03T08:56:33.204Z,5424.00
2023-05-03T08:57:33.176Z,5400.00
2023-05-03T08:58:33.181Z,5476.00
2023-05-03T08:59:33.206Z,5500.00
2023-05-03T09:00:33.130Z,5536.00
2023-05-03T09:01:33.400Z,5528.00
2023-05-03T09:02:33.294Z,5556.00
2023-05-03T09:03:33.204Z,5560.00
2023-05-03T09:04:33.314Z,5556.00
2023-05-03T09:05:33.184Z,5596.00
2023-05-03T09:06:33.303Z,5640.00
2023-05-03T09:07:33.089Z,5660.00
2023-05-03T09:08:33.066Z,5664.00
2023-05-03T09:09:33.027Z,5656.00
2023-05-03T09:10:33.038Z,5672.00
2023-05-03T09:11:33.069Z,5720.00
2023-05-03T09:12:33.017Z,5724.00
2023-05-03T09:13:33.003Z,5724.00
2023-05-03T09:14:32.971Z,5732.00
2023-05-03T09:15:33.077Z,5736.00
2023-05-03T09:16:33.024Z,5740.00
2023-05-03T09:17:33.035Z,5748.00
2023-05-03T09:18:32.944Z,5752.00
2023-05-03T09:19:32.970Z,5760.00
2023-05-03T09:20:32.933Z,5748.00
2023-05-03T09:21:32.936Z,5744.00
2023-05-03T09:22:32.887Z,5764.00
2023-05-03T09:23:32.891Z,5736.00
2023-05-03T09:24:32.933Z,5684.00
2023-05-03T09:25:32.954Z,5728.00
2023-05-03T09:26:34.052Z,5736.00
2023-05-03T09:27:32.829Z,5748.00
2023-05-03T09:28:32.822Z,5772.00
2023-05-03T09:29:32.845Z,5748.00
2023-05-03T09:30:32.846Z,5736.00
2023-05-03T09:31:32.887Z,5752.00
2023-05-03T09:32:32.839Z,5764.00
2023-05-03T09:33:32.772Z,5772.00
2023-05-03T09:34:32.799Z,5776.00
2023-05-03T09:35:32.796Z,5784.00
2023-05-03T09:36:32.764Z,5796.00
2023-05-03T09:37:32.721Z,5804.00
2023-05-03T09:38:32.711Z,5808.00
2023-05-03T09:39:32.733Z,5732.00
2023-05-03T09:40:32.696Z,5828.00
2023-05-03T09:41:32.711Z,5832.00
2023-05-03T09:42:32.654Z,5832.00
2023-05-03T09:43:32.841Z,5840.00
2023-05-03T09:44:32.733Z,5856.00
2023-05-03T09:45:32.694Z,5876.00
2023-05-03T09:46:32.643Z,5876.00
2023-05-03T09:47:32.725Z,5880.00
2023-05-03T09:48:32.622Z,5888.00
2023-05-03T09:49:32.607Z,5904.00
2023-05-03T09:50:32.592Z,5928.00
2023-05-03T09:51:32.578Z,5944.00
2023-05-03T09:52:32.564Z,5964.00
2023-05-03T09:53:32.584Z,5972.00
2023-05-03T09:54:32.547Z,5952.00
2023-05-03T09:55:32.535Z,5956.00
2023-05-03T09:56:32.575Z,5984.00
2023-05-03T09:57:32.509Z,5988.00
2023-05-03T09:58:32.516Z,6012.00
2023-05-03T09:59:32.476Z,6040.00
2023-05-03T10:00:32.481Z,6076.00
2023-05-03T10:01:32.541Z,6112.00
2023-05-03T10:02:32.542Z,6128.00
2023-05-03T10:03:32.558Z,6132.00
2023-05-03T10:04:32.449Z,6164.00
2023-05-03T10:05:32.447Z,6176.00
2023-05-03T10:06:32.478Z,6188.00
2023-05-03T10:07:32.495Z,6204.00
2023-05-03T10:08:32.421Z,6232.00
2023-05-03T10:09:32.392Z,6232.00
2023-05-03T10:10:32.348Z,6244.00
2023-05-03T10:11:32.405Z,6256.00
2023-05-03T10:12:32.409Z,6280.00
2023-05-03T10:13:32.343Z,6304.00
2023-05-03T10:14:32.355Z,6308.00
2023-05-03T10:15:32.337Z,6332.00
2023-05-03T10:16:32.297Z,6340.00
2023-05-03T10:17:46.415Z,6356.00
2023-05-03T10:18:33.329Z,6404.00
2023-05-03T10:19:32.315Z,6452.00
2023-05-03T10:20:32.266Z,6496.00
2023-05-03T10:21:32.285Z,6408.00
2023-05-03T10:22:32.257Z,6596.00
2023-05-03T10:23:32.207Z,6580.00
2023-05-03T10:24:32.214Z,6632.00
2023-05-03T10:25:32.195Z,6676.00
2023-05-03T10:26:32.218Z,6712.00
2023-05-03T10:27:32.273Z,6728.00
2023-05-03T10:28:32.170Z,6752.00
2023-05-03T10:29:32.151Z,6728.00
2023-05-03T10:30:32.185Z,6676.00
2023-05-03T10:31:32.230Z,6744.00
2023-05-03T10:32:32.167Z,6804.00
2023-05-03T10:33:32.150Z,6824.00
2023-05-03T10:34:32.089Z,6844.00
2023-05-03T10:35:32.171Z,6872.00
2023-05-03T10:36:45.821Z,6928.00
2023-05-03T10:37:33.119Z,6988.00
2023-05-03T10:38:32.869Z,6972.00
2023-05-03T10:39:32.026Z,6936.00
2023-05-03T10:40:32.024Z,6956.00
2023-05-03T10:41:32.053Z,7012.00
2023-05-03T10:42:32.026Z,7032.00
2023-05-03T10:43:32.029Z,7008.00
2023-05-03T10:44:32.204Z,7084.00
2023-05-03T10:45:31.969Z,7096.00
2023-05-03T10:46:32.053Z,7088.00
2023-05-03T10:47:31.955Z,7092.00
2023-05-03T10:48:32.028Z,7112.00
2023-05-03T10:49:31.921Z,7080.00
2023-05-03T10:50:31.918Z,7060.00
2023-05-03T10:51:32.905Z,7128.00
2023-05-03T10:52:31.902Z,7108.00
2023-05-03T10:53:31.916Z,7316.00
2023-05-03T10:54:31.869Z,7316.00
2023-05-03T10:55:31.871Z,7404.00
2023-05-03T10:56:31.856Z,7332.00
2023-05-03T10:57:31.833Z,7256.00
2023-05-03T10:58:31.798Z,7324.00
2023-05-03T10:59:31.803Z,7320.00
2023-05-03T11:00:31.887Z,7508.00
2023-05-03T11:01:31.831Z,7456.00
2023-05-03T11:02:31.894Z,7384.00
2023-05-03T11:03:32.385Z,7536.00
2023-05-03T11:04:32.009Z,7588.00
2023-05-03T11:05:31.845Z,7624.00
2023-05-03T11:06:31.875Z,7644.00
2023-05-03T11:07:31.903Z,7672.00
2023-05-03T11:08:31.772Z,7688.00
2023-05-03T11:09:31.853Z,7668.00
2023-05-03T11:10:31.797Z,7680.00
2023-05-03T11:11:31.777Z,7676.00
2023-05-03T11:12:32.386Z,7720.00
2023-05-03T11:13:31.864Z,7732.00
2023-05-03T11:14:31.651Z,7712.00
2023-05-03T11:15:31.837Z,7652.00
2023-05-03T11:16:31.679Z,7796.00
2023-05-03T11:17:32.413Z,7796.00
2023-05-03T11:18:31.567Z,7852.00
2023-05-03T11:19:31.865Z,7908.00
2023-05-03T11:20:31.575Z,7952.00
2023-05-03T11:21:31.566Z,7996.00
2023-05-03T11:22:31.535Z,8016.00
2023-05-03T11:23:31.532Z,8072.00
2023-05-03T11:24:32.381Z,8064.00
2023-05-03T11:25:31.511Z,8116.00
2023-05-03T11:26:31.486Z,8192.00
2023-05-03T11:27:31.481Z,8240.00
2023-05-03T11:28:31.531Z,8268.00
2023-05-03T11:29:31.507Z,8316.00
2023-05-03T11:30:31.440Z,8364.00
2023-05-03T11:31:31.559Z,8356.00
2023-05-03T11:32:31.436Z,8384.00
2023-05-03T11:33:31.488Z,8464.00
2023-05-03T11:34:31.441Z,8484.00
2023-05-03T11:35:31.415Z,8476.00
2023-05-03T11:36:31.357Z,8516.00
2023-05-03T11:37:31.419Z,8584.00
2023-05-03T11:38:31.492Z,8712.00
2023-05-03T11:39:31.390Z,8624.00
2023-05-03T11:40:31.348Z,8692.00
2023-05-03T11:41:31.318Z,8740.00
2023-05-03T11:42:31.314Z,8788.00
2023-05-03T11:43:31.415Z,8872.00
2023-05-03T11:44:31.288Z,8912.00
2023-05-03T11:45:31.283Z,9020.00
2023-05-03T11:46:31.302Z,9068.00
2023-05-03T11:47:31.326Z,9196.00
2023-05-03T11:48:31.361Z,9280.00
2023-05-03T11:49:31.252Z,9340.00
2023-05-03T11:50:31.220Z,9440.00
2023-05-03T11:51:31.190Z,9512.00
2023-05-03T11:52:31.197Z,9568.00
2023-05-03T11:53:31.234Z,9672.00
2023-05-03T11:54:31.216Z,9720.00
2023-05-03T11:55:31.205Z,9284.00
2023-05-03T11:56:31.153Z,9528.00
2023-05-03T11:57:31.155Z,9616.00
2023-05-03T11:58:31.154Z,9864.00
2023-05-03T11:59:31.117Z,10020.00
2023-05-03T12:00:31.187Z,10140.00
2023-05-03T12:01:31.133Z,10260.00
2023-05-03T12:02:31.274Z,10384.00
2023-05-03T12:03:32.636Z,10504.00
2023-05-03T12:04:31.335Z,10628.00
2023-05-03T12:05:31.315Z,10724.00
2023-05-03T12:06:32.216Z,10780.00
2023-05-03T12:07:31.128Z,10048.00
2023-05-03T12:08:31.994Z,10488.00
2023-05-03T12:09:31.634Z,10428.00
2023-05-03T12:10:32.658Z,10604.00
2023-05-03T12:11:33.216Z,10472.00
2023-05-03T12:12:33.281Z,10756.00
2023-05-03T12:13:33.870Z,11028.00
2023-05-03T12:14:32.912Z,11068.00
2023-05-03T12:15:31.085Z,10932.00
2023-05-03T12:16:31.039Z,10968.00
2023-05-03T12:17:31.126Z,11136.00
2023-05-03T12:18:31.207Z,11396.00
2023-05-03T12:19:34.101Z,11320.00
2023-05-03T12:21:03.058Z,11672.00
2023-05-03T12:21:32.397Z,11944.00
2023-05-03T12:22:31.146Z,12028.00
2023-05-03T12:23:31.294Z,12080.00
2023-05-03T12:24:33.054Z,12136.00
2023-05-03T12:25:33.435Z,12096.00
2023-05-03T12:27:32.619Z,12300.00